sensor_id;sensor_type;location;lat;lon;timestamp;pressure;altitude;pressure_sealevel;temperature;humidity
27805;BME280;15183;51.350;11.102;2023-05-17T00:01:19;100526.69;;;11.60;45.68
27805;BME280;15183;51.350;11.102;2023-05-17T00:03:45;100517.91;;;11.59;45.47
27805;BME280;15183;51.350;11.102;2023-05-17T00:06:12;100525.81;;;11.66;45.62
27805;BME280;15183;51.350;11.102;2023-05-17T00:08:38;100535.16;;;11.75;45.15
27805;BME280;15183;51.350;11.102;2023-05-17T00:11:04;100540.84;;;11.79;45.21
27805;BME280;15183;51.350;11.102;2023-05-17T00:13:31;100523.72;;;11.75;45.36
27805;BME280;15183;51.350;11.102;2023-05-17T00:15:57;100533.66;;;11.86;45.30
27805;BME280;15183;51.350;11.102;2023-05-17T00:18:24;100509.00;;;11.79;45.51
27805;BME280;15183;51.350;11.102;2023-05-17T00:20:50;100525.25;;;11.89;45.51
27805;BME280;15183;51.350;11.102;2023-05-17T00:23:16;100525.84;;;11.91;45.40
27805;BME280;15183;51.350;11.102;2023-05-17T00:25:43;100520.38;;;11.86;45.37
27805;BME280;15183;51.350;11.102;2023-05-17T00:28:09;100525.25;;;11.89;45.58
27805;BME280;15183;51.350;11.102;2023-05-17T00:30:36;100527.06;;;11.88;45.32
27805;BME280;15183;51.350;11.102;2023-05-17T00:33:02;100517.72;;;11.86;45.71
27805;BME280;15183;51.350;11.102;2023-05-17T00:35:29;100512.84;;;11.83;45.77
27805;BME280;15183;51.350;11.102;2023-05-17T00:37:56;100534.44;;;11.86;45.59
27805;BME280;15183;51.350;11.102;2023-05-17T00:40:22;100530.81;;;11.81;45.27
27805;BME280;15183;51.350;11.102;2023-05-17T00:42:48;100535.31;;;11.80;45.27
27805;BME280;15183;51.350;11.102;2023-05-17T00:45:15;100518.81;;;11.71;45.39
27805;BME280;15183;51.350;11.102;2023-05-17T00:47:41;100534.94;;;11.77;45.95
27805;BME280;15183;51.350;11.102;2023-05-17T00:50:08;100515.47;;;11.57;45.74
27805;BME280;15183;51.350;11.102;2023-05-17T00:52:35;100530.09;;;11.67;45.71
27805;BME280;15183;51.350;11.102;2023-05-17T00:55:02;100522.19;;;11.60;45.79
27805;BME280;15183;51.350;11.102;2023-05-17T00:57:28;100531.59;;;11.56;45.76
27805;BME280;15183;51.350;11.102;2023-05-17T00:59:55;100534.13;;;11.44;45.80
27805;BME280;15183;51.350;11.102;2023-05-17T01:02:23;100529.75;;;11.24;45.87
27805;BME280;15183;51.350;11.102;2023-05-17T01:04:49;100535.53;;;11.08;46.35
27805;BME280;15183;51.350;11.102;2023-05-17T01:07:16;100539.06;;;10.95;46.19
27805;BME280;15183;51.350;11.102;2023-05-17T01:09:43;100536.66;;;10.86;46.44
27805;BME280;15183;51.350;11.102;2023-05-17T01:15:32;100533.41;;;10.84;46.78
27805;BME280;15183;51.350;11.102;2023-05-17T01:18:20;100530.31;;;10.88;46.60
27805;BME280;15183;51.350;11.102;2023-05-17T01:20:50;100529.53;;;10.87;46.80
27805;BME280;15183;51.350;11.102;2023-05-17T01:23:43;100526.91;;;10.80;46.68
27805;BME280;15183;51.350;11.102;2023-05-17T01:26:19;100524.69;;;10.70;46.71
27805;BME280;15183;51.350;11.102;2023-05-17T01:28:51;100543.28;;;10.64;46.60
27805;BME280;15183;51.350;11.102;2023-05-17T01:31:19;100535.13;;;10.52;46.58
27805;BME280;15183;51.350;11.102;2023-05-17T01:33:46;100543.47;;;10.55;46.84
27805;BME280;15183;51.350;11.102;2023-05-17T01:36:15;100543.69;;;10.54;46.89
27805;BME280;15183;51.350;11.102;2023-05-17T01:38:42;100549.78;;;10.61;47.12
27805;BME280;15183;51.350;11.102;2023-05-17T01:41:22;100543.88;;;10.59;47.10
27805;BME280;15183;51.350;11.102;2023-05-17T01:46:25;100546.94;;;10.56;46.92
27805;BME280;15183;51.350;11.102;2023-05-17T01:51:46;100549.59;;;10.49;47.35
27805;BME280;15183;51.350;11.102;2023-05-17T01:54:19;100551.41;;;10.55;46.99
27805;BME280;15183;51.350;11.102;2023-05-17T01:56:52;100557.94;;;10.60;47.11
27805;BME280;15183;51.350;11.102;2023-05-17T01:59:22;100566.28;;;10.63;46.86
27805;BME280;15183;51.350;11.102;2023-05-17T02:01:57;100575.88;;;10.64;47.06
27805;BME280;15183;51.350;11.102;2023-05-17T02:04:29;100564.47;;;10.57;47.23
27805;BME280;15183;51.350;11.102;2023-05-17T02:06:55;100561.59;;;10.59;46.98
27805;BME280;15183;51.350;11.102;2023-05-17T02:09:22;100571.41;;;10.58;47.00
27805;BME280;15183;51.350;11.102;2023-05-17T02:11:48;100562.63;;;10.57;46.95
27805;BME280;15183;51.350;11.102;2023-05-17T02:14:15;100568.16;;;10.56;47.08
27805;BME280;15183;51.350;11.102;2023-05-17T02:16:41;100565.53;;;10.42;47.23
27805;BME280;15183;51.350;11.102;2023-05-17T02:19:08;100577.75;;;10.44;47.28
27805;BME280;15183;51.350;11.102;2023-05-17T02:21:34;100577.91;;;10.35;47.52
27805;BME280;15183;51.350;11.102;2023-05-17T02:24:01;100564.91;;;10.07;47.49
27805;BME280;15183;51.350;11.102;2023-05-17T02:26:27;100577.50;;;9.98;47.75
27805;BME280;15183;51.350;11.102;2023-05-17T02:28:53;100566.09;;;9.84;47.90
27805;BME280;15183;51.350;11.102;2023-05-17T02:31:20;100572.41;;;9.83;47.78
27805;BME280;15183;51.350;11.102;2023-05-17T02:33:46;100560.38;;;9.74;48.23
27805;BME280;15183;51.350;11.102;2023-05-17T02:36:12;100569.38;;;9.79;48.22
27805;BME280;15183;51.350;11.102;2023-05-17T02:38:39;100565.28;;;9.70;48.01
27805;BME280;15183;51.350;11.102;2023-05-17T02:41:05;100575.88;;;9.70;48.13
27805;BME280;15183;51.350;11.102;2023-05-17T02:43:32;100580.56;;;9.68;48.16
27805;BME280;15183;51.350;11.102;2023-05-17T02:45:58;100565.47;;;9.62;48.11
27805;BME280;15183;51.350;11.102;2023-05-17T02:48:24;100572.19;;;9.64;48.48
27805;BME280;15183;51.350;11.102;2023-05-17T02:50:51;100584.81;;;9.76;48.66
27805;BME280;15183;51.350;11.102;2023-05-17T02:53:17;100589.50;;;9.74;48.41
27805;BME280;15183;51.350;11.102;2023-05-17T02:55:44;100579.09;;;9.65;48.56
27805;BME280;15183;51.350;11.102;2023-05-17T02:58:10;100588.88;;;9.72;48.51
27805;BME280;15183;51.350;11.102;2023-05-17T03:00:36;100595.84;;;9.79;48.11
27805;BME280;15183;51.350;11.102;2023-05-17T03:03:03;100579.13;;;9.79;48.31
27805;BME280;15183;51.350;11.102;2023-05-17T03:05:29;100599.50;;;9.92;47.82
27805;BME280;15183;51.350;11.102;2023-05-17T03:07:55;100594.84;;;10.01;47.96
27805;BME280;15183;51.350;11.102;2023-05-17T03:10:22;100590.56;;;10.06;47.50
27805;BME280;15183;51.350;11.102;2023-05-17T03:12:48;100583.22;;;10.02;47.58
27805;BME280;15183;51.350;11.102;2023-05-17T03:15:15;100597.09;;;10.10;47.80
27805;BME280;15183;51.350;11.102;2023-05-17T03:17:41;100598.91;;;10.03;47.86
27805;BME280;15183;51.350;11.102;2023-05-17T03:20:08;100592.38;;;9.85;47.67
27805;BME280;15183;51.350;11.102;2023-05-17T03:22:34;100599.28;;;9.80;48.25
27805;BME280;15183;51.350;11.102;2023-05-17T03:25:01;100606.22;;;9.74;48.08
27805;BME280;15183;51.350;11.102;2023-05-17T03:27:27;100604.75;;;9.72;48.15
27805;BME280;15183;51.350;11.102;2023-05-17T03:29:55;100606.41;;;9.73;48.27
27805;BME280;15183;51.350;11.102;2023-05-17T03:32:22;100612.13;;;9.76;48.27
27805;BME280;15183;51.350;11.102;2023-05-17T03:34:48;100619.03;;;9.84;48.08
27805;BME280;15183;51.350;11.102;2023-05-17T03:37:15;100596.41;;;9.75;48.42
27805;BME280;15183;51.350;11.102;2023-05-17T03:39:41;100612.09;;;9.83;48.46
27805;BME280;15183;51.350;11.102;2023-05-17T03:42:08;100581.16;;;9.63;48.83
27805;BME280;15183;51.350;11.102;2023-05-17T03:44:34;100580.94;;;9.65;48.75
27805;BME280;15183;51.350;11.102;2023-05-17T03:47:01;100605.59;;;9.79;48.76
27805;BME280;15183;51.350;11.102;2023-05-17T03:49:27;100587.66;;;9.54;48.72
27805;BME280;15183;51.350;11.102;2023-05-17T03:51:53;100606.16;;;9.54;49.04
27805;BME280;15183;51.350;11.102;2023-05-17T03:54:20;100600.41;;;9.44;49.35
27805;BME280;15183;51.350;11.102;2023-05-17T03:56:46;100614.50;;;9.51;49.64
27805;BME280;15183;51.350;11.102;2023-05-17T03:59:14;100612.47;;;9.60;49.16
27805;BME280;15183;51.350;11.102;2023-05-17T04:01:42;100610.06;;;9.72;49.69
27805;BME280;15183;51.350;11.102;2023-05-17T04:04:08;100599.06;;;9.75;49.34
27805;BME280;15183;51.350;11.102;2023-05-17T04:06:35;100597.88;;;9.91;49.49
27805;BME280;15183;51.350;11.102;2023-05-17T04:09:01;100606.84;;;10.10;49.50
27805;BME280;15183;51.350;11.102;2023-05-17T04:11:28;100611.97;;;10.32;49.40
27805;BME280;15183;51.350;11.102;2023-05-17T04:13:54;100610.13;;;10.39;49.07
27805;BME280;15183;51.350;11.102;2023-05-17T04:16:21;100616.88;;;10.62;49.21
27805;BME280;15183;51.350;11.102;2023-05-17T04:18:48;100613.16;;;10.76;49.21
27805;BME280;15183;51.350;11.102;2023-05-17T04:21:18;100621.72;;;10.85;49.23
27805;BME280;15183;51.350;11.102;2023-05-17T04:23:44;100619.03;;;10.92;49.55
27805;BME280;15183;51.350;11.102;2023-05-17T04:26:11;100606.00;;;10.90;49.25
27805;BME280;15183;51.350;11.102;2023-05-17T04:28:37;100628.59;;;10.99;49.16
27805;BME280;15183;51.350;11.102;2023-05-17T04:31:06;100620.66;;;10.93;48.93
27805;BME280;15183;51.350;11.102;2023-05-17T04:33:36;100634.53;;;10.88;49.17
27805;BME280;15183;51.350;11.102;2023-05-17T04:36:02;100632.28;;;10.92;48.60
27805;BME280;15183;51.350;11.102;2023-05-17T04:38:29;100644.31;;;10.94;48.97
27805;BME280;15183;51.350;11.102;2023-05-17T04:41:05;100635.75;;;10.92;48.86
27805;BME280;15183;51.350;11.102;2023-05-17T04:43:32;100634.72;;;10.93;49.11
27805;BME280;15183;51.350;11.102;2023-05-17T04:45:59;100643.28;;;10.95;49.22
27805;BME280;15183;51.350;11.102;2023-05-17T04:48:26;100637.81;;;10.90;48.98
27805;BME280;15183;51.350;11.102;2023-05-17T04:50:55;100615.38;;;10.79;49.27
27805;BME280;15183;51.350;11.102;2023-05-17T04:53:25;100640.63;;;10.95;49.10
27805;BME280;15183;51.350;11.102;2023-05-17T04:55:51;100640.22;;;11.05;48.91
27805;BME280;15183;51.350;11.102;2023-05-17T04:58:17;100659.94;;;11.23;48.81
27805;BME280;15183;51.350;11.102;2023-05-17T05:00:44;100655.03;;;11.26;48.94
27805;BME280;15183;51.350;11.102;2023-05-17T05:03:10;100659.69;;;11.38;48.92
27805;BME280;15183;51.350;11.102;2023-05-17T05:05:37;100671.06;;;11.45;49.00
27805;BME280;15183;51.350;11.102;2023-05-17T05:08:03;100666.19;;;11.49;48.81
27805;BME280;15183;51.350;11.102;2023-05-17T05:10:30;100667.41;;;11.46;48.75
27805;BME280;15183;51.350;11.102;2023-05-17T05:12:56;100673.72;;;11.52;48.63
27805;BME280;15183;51.350;11.102;2023-05-17T05:15:23;100658.41;;;11.47;48.86
27805;BME280;15183;51.350;11.102;2023-05-17T05:17:49;100682.03;;;11.62;48.86
27805;BME280;15183;51.350;11.102;2023-05-17T05:20:16;100681.00;;;11.63;48.78
27805;BME280;15183;51.350;11.102;2023-05-17T05:22:42;100685.69;;;11.68;49.16
27805;BME280;15183;51.350;11.102;2023-05-17T05:25:09;100685.44;;;11.76;48.77
27805;BME280;15183;51.350;11.102;2023-05-17T05:27:35;100683.38;;;11.85;48.84
27805;BME280;15183;51.350;11.102;2023-05-17T05:30:03;100686.13;;;12.04;48.93
27805;BME280;15183;51.350;11.102;2023-05-17T05:32:29;100694.13;;;12.29;48.95
27805;BME280;15183;51.350;11.102;2023-05-17T05:34:55;100698.06;;;12.52;48.62
27805;BME280;15183;51.350;11.102;2023-05-17T05:37:22;100705.66;;;12.73;48.63
27805;BME280;15183;51.350;11.102;2023-05-17T05:39:49;100684.06;;;12.88;48.33
27805;BME280;15183;51.350;11.102;2023-05-17T05:42:15;100703.22;;;13.16;48.11
27805;BME280;15183;51.350;11.102;2023-05-17T05:44:41;100692.06;;;13.26;47.83
27805;BME280;15183;51.350;11.102;2023-05-17T05:47:08;100703.31;;;13.46;47.76
27805;BME280;15183;51.350;11.102;2023-05-17T05:49:34;100698.56;;;13.49;47.77
27805;BME280;15183;51.350;11.102;2023-05-17T05:52:00;100704.94;;;13.48;48.29
27805;BME280;15183;51.350;11.102;2023-05-17T05:54:27;100710.50;;;13.46;48.16
27805;BME280;15183;51.350;11.102;2023-05-17T05:56:53;100727.69;;;13.62;48.04
27805;BME280;15183;51.350;11.102;2023-05-17T05:59:20;100722.53;;;13.67;48.46
27805;BME280;15183;51.350;11.102;2023-05-17T06:01:46;100720.94;;;13.78;48.29
27805;BME280;15183;51.350;11.102;2023-05-17T06:04:13;100728.66;;;13.98;48.11
27805;BME280;15183;51.350;11.102;2023-05-17T06:06:39;100728.50;;;14.12;47.79
27805;BME280;15183;51.350;11.102;2023-05-17T06:09:06;100730.38;;;14.23;47.66
27805;BME280;15183;51.350;11.102;2023-05-17T06:11:32;100730.03;;;14.31;48.13
27805;BME280;15183;51.350;11.102;2023-05-17T06:13:59;100739.03;;;14.49;47.45
27805;BME280;15183;51.350;11.102;2023-05-17T06:16:25;100737.84;;;14.57;47.47
27805;BME280;15183;51.350;11.102;2023-05-17T06:18:52;100742.88;;;14.65;47.59
27805;BME280;15183;51.350;11.102;2023-05-17T06:21:18;100743.94;;;14.76;48.06
27805;BME280;15183;51.350;11.102;2023-05-17T06:23:44;100746.59;;;14.76;47.73
27805;BME280;15183;51.350;11.102;2023-05-17T06:26:11;100734.47;;;14.80;47.89
27805;BME280;15183;51.350;11.102;2023-05-17T06:28:37;100743.03;;;14.94;48.04
27805;BME280;15183;51.350;11.102;2023-05-17T06:31:04;100755.56;;;15.17;47.63
27805;BME280;15183;51.350;11.102;2023-05-17T06:33:30;100756.47;;;15.23;47.50
27805;BME280;15183;51.350;11.102;2023-05-17T06:35:56;100755.22;;;15.26;47.84
27805;BME280;15183;51.350;11.102;2023-05-17T06:38:23;100761.81;;;15.23;47.64
27805;BME280;15183;51.350;11.102;2023-05-17T06:40:54;100777.16;;;15.28;47.59
27805;BME280;15183;51.350;11.102;2023-05-17T06:43:21;100769.50;;;15.19;47.79
27805;BME280;15183;51.350;11.102;2023-05-17T06:45:47;100769.03;;;15.23;47.79
27805;BME280;15183;51.350;11.102;2023-05-17T06:48:14;100775.53;;;15.27;47.07
27805;BME280;15183;51.350;11.102;2023-05-17T06:50:41;100776.00;;;15.24;47.63
27805;BME280;15183;51.350;11.102;2023-05-17T06:53:07;100779.72;;;15.23;48.10
27805;BME280;15183;51.350;11.102;2023-05-17T06:55:33;100769.72;;;15.18;47.97
27805;BME280;15183;51.350;11.102;2023-05-17T06:58:00;100780.97;;;15.20;47.39
27805;BME280;15183;51.350;11.102;2023-05-17T07:00:26;100770.53;;;15.18;47.73
27805;BME280;15183;51.350;11.102;2023-05-17T07:02:53;100772.28;;;15.13;47.55
27805;BME280;15183;51.350;11.102;2023-05-17T07:05:20;100790.84;;;15.19;47.72
27805;BME280;15183;51.350;11.102;2023-05-17T07:07:47;100780.66;;;15.16;47.59
27805;BME280;15183;51.350;11.102;2023-05-17T07:10:13;100789.81;;;15.21;47.60
27805;BME280;15183;51.350;11.102;2023-05-17T07:12:40;100792.81;;;15.24;47.51
27805;BME280;15183;51.350;11.102;2023-05-17T07:15:07;100785.63;;;15.25;47.40
27805;BME280;15183;51.350;11.102;2023-05-17T07:17:33;100768.09;;;15.29;47.32
27805;BME280;15183;51.350;11.102;2023-05-17T07:19:59;100788.63;;;15.52;47.07
27805;BME280;15183;51.350;11.102;2023-05-17T07:22:26;100792.41;;;15.68;47.20
27805;BME280;15183;51.350;11.102;2023-05-17T07:24:52;100793.28;;;15.86;47.21
27805;BME280;15183;51.350;11.102;2023-05-17T07:27:19;100795.25;;;16.02;46.79
27805;BME280;15183;51.350;11.102;2023-05-17T07:29:45;100779.06;;;16.09;47.52
27805;BME280;15183;51.350;11.102;2023-05-17T07:32:12;100786.47;;;16.19;47.44
27805;BME280;15183;51.350;11.102;2023-05-17T07:34:38;100784.41;;;16.38;46.96
27805;BME280;15183;51.350;11.102;2023-05-17T07:37:04;100788.97;;;16.55;47.61
27805;BME280;15183;51.350;11.102;2023-05-17T07:39:31;100795.47;;;16.59;47.45
27805;BME280;15183;51.350;11.102;2023-05-17T07:41:57;100792.22;;;16.74;47.69
27805;BME280;15183;51.350;11.102;2023-05-17T07:44:24;100779.41;;;16.93;48.04
27805;BME280;15183;51.350;11.102;2023-05-17T07:46:50;100784.72;;;17.44;47.93
27805;BME280;15183;51.350;11.102;2023-05-17T07:49:16;100777.09;;;17.58;47.54
27805;BME280;15183;51.350;11.102;2023-05-17T07:51:43;100789.88;;;17.73;47.54
27805;BME280;15183;51.350;11.102;2023-05-17T07:54:21;100765.63;;;17.85;47.02
27805;BME280;15183;51.350;11.102;2023-05-17T07:56:48;100769.97;;;18.14;47.21
27805;BME280;15183;51.350;11.102;2023-05-17T07:59:15;100768.16;;;18.52;46.89
27805;BME280;15183;51.350;11.102;2023-05-17T08:01:41;100776.47;;;18.83;45.78
27805;BME280;15183;51.350;11.102;2023-05-17T08:04:07;100782.53;;;19.01;45.07
27805;BME280;15183;51.350;11.102;2023-05-17T08:06:34;100779.78;;;18.95;43.49
27805;BME280;15183;51.350;11.102;2023-05-17T08:09:01;100783.75;;;18.88;43.40
27805;BME280;15183;51.350;11.102;2023-05-17T08:11:27;100779.38;;;18.76;42.97
27805;BME280;15183;51.350;11.102;2023-05-17T08:13:53;100782.78;;;18.66;41.87
27805;BME280;15183;51.350;11.102;2023-05-17T08:16:20;100786.63;;;18.76;42.24
27805;BME280;15183;51.350;11.102;2023-05-17T08:18:46;100782.41;;;18.90;41.13
27805;BME280;15183;51.350;11.102;2023-05-17T08:21:13;100791.78;;;18.83;39.91
27805;BME280;15183;51.350;11.102;2023-05-17T08:23:39;100779.25;;;18.61;39.18
27805;BME280;15183;51.350;11.102;2023-05-17T08:26:06;100797.59;;;18.42;39.16
27805;BME280;15183;51.350;11.102;2023-05-17T08:28:33;100780.00;;;18.23;39.17
27805;BME280;15183;51.350;11.102;2023-05-17T08:30:59;100786.28;;;18.07;39.18
27805;BME280;15183;51.350;11.102;2023-05-17T08:33:26;100792.31;;;17.97;38.95
27805;BME280;15183;51.350;11.102;2023-05-17T08:35:53;100784.72;;;17.89;39.00
27805;BME280;15183;51.350;11.102;2023-05-17T08:38:21;100778.03;;;17.91;39.33
27805;BME280;15183;51.350;11.102;2023-05-17T08:40:56;100786.00;;;18.08;39.07
27805;BME280;15183;51.350;11.102;2023-05-17T08:43:24;100793.81;;;18.37;39.01
27805;BME280;15183;51.350;11.102;2023-05-17T08:45:52;100794.69;;;18.81;39.37
27805;BME280;15183;51.350;11.102;2023-05-17T08:48:19;100775.38;;;19.17;38.33
27805;BME280;15183;51.350;11.102;2023-05-17T08:50:46;100775.25;;;19.49;37.99
27805;BME280;15183;51.350;11.102;2023-05-17T08:53:16;100766.34;;;19.38;37.37
27805;BME280;15183;51.350;11.102;2023-05-17T08:55:46;100782.44;;;19.33;36.50
27805;BME280;15183;51.350;11.102;2023-05-17T08:58:20;100776.38;;;19.05;36.71
27805;BME280;15183;51.350;11.102;2023-05-17T09:00:50;100780.38;;;18.98;36.76
27805;BME280;15183;51.350;11.102;2023-05-17T09:03:18;100774.56;;;19.16;37.33
27805;BME280;15183;51.350;11.102;2023-05-17T09:05:45;100776.34;;;19.48;36.57
27805;BME280;15183;51.350;11.102;2023-05-17T09:08:11;100780.22;;;19.73;36.79
27805;BME280;15183;51.350;11.102;2023-05-17T09:10:42;100791.09;;;20.09;36.45
27805;BME280;15183;51.350;11.102;2023-05-17T09:13:11;100769.03;;;20.23;36.10
27805;BME280;15183;51.350;11.102;2023-05-17T09:15:46;100779.81;;;20.23;34.46
27805;BME280;15183;51.350;11.102;2023-05-17T09:18:13;100791.06;;;20.04;34.50
27805;BME280;15183;51.350;11.102;2023-05-17T09:20:39;100798.00;;;19.85;34.75
27805;BME280;15183;51.350;11.102;2023-05-17T09:23:10;100798.19;;;19.62;34.93
27805;BME280;15183;51.350;11.102;2023-05-17T09:25:46;100796.78;;;19.49;34.69
27805;BME280;15183;51.350;11.102;2023-05-17T09:28:13;100788.63;;;19.34;35.42
27805;BME280;15183;51.350;11.102;2023-05-17T09:30:40;100814.94;;;19.32;34.77
27805;BME280;15183;51.350;11.102;2023-05-17T09:33:09;100804.94;;;19.17;34.95
27805;BME280;15183;51.350;11.102;2023-05-17T09:35:37;100805.84;;;19.33;35.24
27805;BME280;15183;51.350;11.102;2023-05-17T09:38:10;100803.25;;;19.59;34.85
27805;BME280;15183;51.350;11.102;2023-05-17T09:40:42;100808.44;;;19.81;34.50
27805;BME280;15183;51.350;11.102;2023-05-17T09:43:10;100802.09;;;19.92;34.49
27805;BME280;15183;51.350;11.102;2023-05-17T09:45:37;100800.19;;;19.93;34.08
27805;BME280;15183;51.350;11.102;2023-05-17T09:48:30;100809.53;;;19.80;34.44
27805;BME280;15183;51.350;11.102;2023-05-17T09:50:57;100809.47;;;19.59;34.05
27805;BME280;15183;51.350;11.102;2023-05-17T09:53:27;100805.91;;;19.48;34.42
27805;BME280;15183;51.350;11.102;2023-05-17T09:55:59;100804.38;;;19.68;34.96
27805;BME280;15183;51.350;11.102;2023-05-17T09:58:27;100801.03;;;20.09;35.03
27805;BME280;15183;51.350;11.102;2023-05-17T10:01:03;100801.09;;;20.50;34.61
27805;BME280;15183;51.350;11.102;2023-05-17T10:03:36;100798.94;;;20.78;34.18
27805;BME280;15183;51.350;11.102;2023-05-17T10:06:07;100793.28;;;20.75;33.27
27805;BME280;15183;51.350;11.102;2023-05-17T10:08:37;100809.44;;;20.70;33.27
27805;BME280;15183;51.350;11.102;2023-05-17T10:11:08;100815.38;;;20.51;33.24
27805;BME280;15183;51.350;11.102;2023-05-17T10:13:44;100821.00;;;20.34;33.24
27805;BME280;15183;51.350;11.102;2023-05-17T10:16:12;100809.66;;;20.11;33.26
27805;BME280;15183;51.350;11.102;2023-05-17T10:18:40;100816.06;;;19.94;33.05
27805;BME280;15183;51.350;11.102;2023-05-17T10:21:07;100813.56;;;19.77;33.87
27805;BME280;15183;51.350;11.102;2023-05-17T10:23:35;100807.66;;;19.80;33.29
27805;BME280;15183;51.350;11.102;2023-05-17T10:26:03;100805.03;;;19.91;33.45
27805;BME280;15183;51.350;11.102;2023-05-17T10:28:30;100816.41;;;20.19;33.60
27805;BME280;15183;51.350;11.102;2023-05-17T10:30:58;100816.47;;;20.60;33.57
27805;BME280;15183;51.350;11.102;2023-05-17T10:33:26;100814.81;;;21.16;33.63
27805;BME280;15183;51.350;11.102;2023-05-17T10:35:53;100818.19;;;21.68;33.49
27805;BME280;15183;51.350;11.102;2023-05-17T10:38:21;100801.22;;;22.13;33.23
27805;BME280;15183;51.350;11.102;2023-05-17T10:40:49;100807.16;;;22.60;32.35
27805;BME280;15183;51.350;11.102;2023-05-17T10:43:18;100812.03;;;22.58;31.14
27805;BME280;15183;51.350;11.102;2023-05-17T10:45:45;100821.41;;;22.26;31.32
27805;BME280;15183;51.350;11.102;2023-05-17T10:48:14;100820.25;;;21.92;31.44
27805;BME280;15183;51.350;11.102;2023-05-17T10:50:47;100823.88;;;21.67;31.60
27805;BME280;15183;51.350;11.102;2023-05-17T10:53:13;100825.00;;;21.45;31.62
27805;BME280;15183;51.350;11.102;2023-05-17T10:55:42;100822.88;;;21.37;31.42
27805;BME280;15183;51.350;11.102;2023-05-17T11:00:40;100788.53;;;21.63;31.96
27805;BME280;15183;51.350;11.102;2023-05-17T11:03:20;100810.22;;;22.03;31.75
27805;BME280;15183;51.350;11.102;2023-05-17T11:08:45;100815.78;;;22.62;31.68
27805;BME280;15183;51.350;11.102;2023-05-17T11:11:30;100806.34;;;22.60;31.05
27805;BME280;15183;51.350;11.102;2023-05-17T11:13:57;100815.50;;;22.64;31.31
27805;BME280;15183;51.350;11.102;2023-05-17T11:16:35;100819.44;;;22.77;31.28
27805;BME280;15183;51.350;11.102;2023-05-17T11:19:10;100816.34;;;22.89;30.59
27805;BME280;15183;51.350;11.102;2023-05-17T11:21:46;100806.47;;;22.79;30.58
27805;BME280;15183;51.350;11.102;2023-05-17T11:24:25;100823.78;;;22.78;30.49
27805;BME280;15183;51.350;11.102;2023-05-17T11:26:54;100820.09;;;22.63;31.02
27805;BME280;15183;51.350;11.102;2023-05-17T11:29:28;100807.72;;;22.57;30.73
27805;BME280;15183;51.350;11.102;2023-05-17T11:31:55;100809.69;;;22.81;30.71
27805;BME280;15183;51.350;11.102;2023-05-17T11:34:22;100808.63;;;23.06;30.61
27805;BME280;15183;51.350;11.102;2023-05-17T11:36:52;100818.69;;;23.30;29.63
27805;BME280;15183;51.350;11.102;2023-05-17T11:39:23;100809.25;;;23.27;29.06
27805;BME280;15183;51.350;11.102;2023-05-17T11:41:53;100814.91;;;23.31;29.00
27805;BME280;15183;51.350;11.102;2023-05-17T11:44:33;100802.63;;;23.39;29.64
27805;BME280;15183;51.350;11.102;2023-05-17T11:47:05;100803.06;;;23.70;29.47
27805;BME280;15183;51.350;11.102;2023-05-17T11:49:37;100815.22;;;23.92;29.80
27805;BME280;15183;51.350;11.102;2023-05-17T11:52:04;100814.44;;;23.92;29.30
27805;BME280;15183;51.350;11.102;2023-05-17T11:54:31;100812.09;;;23.85;28.99
27805;BME280;15183;51.350;11.102;2023-05-17T11:56:59;100814.34;;;23.78;28.48
27805;BME280;15183;51.350;11.102;2023-05-17T11:59:25;100803.44;;;23.39;28.80
27805;BME280;15183;51.350;11.102;2023-05-17T12:01:51;100813.31;;;23.25;28.69
27805;BME280;15183;51.350;11.102;2023-05-17T12:04:26;100812.63;;;23.14;28.75
27805;BME280;15183;51.350;11.102;2023-05-17T12:06:54;100786.94;;;22.87;29.04
27805;BME280;15183;51.350;11.102;2023-05-17T12:09:22;100814.41;;;22.94;29.14
27805;BME280;15183;51.350;11.102;2023-05-17T12:11:49;100806.78;;;23.02;29.68
27805;BME280;15183;51.350;11.102;2023-05-17T12:14:18;100808.00;;;23.15;29.05
27805;BME280;15183;51.350;11.102;2023-05-17T12:16:53;100808.84;;;23.10;28.83
27805;BME280;15183;51.350;11.102;2023-05-17T12:19:24;100806.84;;;22.96;28.24
27805;BME280;15183;51.350;11.102;2023-05-17T12:21:52;100794.63;;;22.75;29.07
27805;BME280;15183;51.350;11.102;2023-05-17T12:24:18;100808.88;;;22.80;28.72
27805;BME280;15183;51.350;11.102;2023-05-17T12:26:46;100805.91;;;22.82;28.40
27805;BME280;15183;51.350;11.102;2023-05-17T12:29:14;100797.16;;;22.90;29.08
27805;BME280;15183;51.350;11.102;2023-05-17T12:31:49;100790.78;;;22.81;28.01
27805;BME280;15183;51.350;11.102;2023-05-17T12:34:16;100801.69;;;22.65;27.56
27805;BME280;15183;51.350;11.102;2023-05-17T12:36:43;100798.38;;;22.39;28.15
27805;BME280;15183;51.350;11.102;2023-05-17T12:39:11;100792.22;;;22.28;28.96
27805;BME280;15183;51.350;11.102;2023-05-17T12:41:39;100784.66;;;22.30;29.18
27805;BME280;15183;51.350;11.102;2023-05-17T12:44:09;100798.56;;;22.53;29.08
27805;BME280;15183;51.350;11.102;2023-05-17T12:46:36;100779.28;;;22.65;28.89
27805;BME280;15183;51.350;11.102;2023-05-17T12:49:10;100795.72;;;22.68;28.11
27805;BME280;15183;51.350;11.102;2023-05-17T12:51:43;100798.44;;;22.68;28.71
27805;BME280;15183;51.350;11.102;2023-05-17T12:54:30;100798.41;;;22.74;28.93
27805;BME280;15183;51.350;11.102;2023-05-17T12:56:58;100795.59;;;22.84;29.33
27805;BME280;15183;51.350;11.102;2023-05-17T12:59:24;100792.41;;;23.06;29.22